sensor_id;sensor_type;location;lat;lon;timestamp;P1;durP1;ratioP1;P2;durP2;ratioP2
75667;SDS011;64266;48.798;44.756;2023-06-05T00:00:16;3.92;;;1.92;;
75667;SDS011;64266;48.798;44.756;2023-06-05T00:05:19;4.88;;;1.88;;
75667;SDS011;64266;48.798;44.756;2023-06-05T00:10:22;10.75;;;4.22;;
75667;SDS011;64266;48.798;44.756;2023-06-05T00:15:26;6.10;;;2.33;;
75667;SDS011;64266;48.798;44.756;2023-06-05T00:20:29;9.77;;;4.30;;
75667;SDS011;64266;48.798;44.756;2023-06-05T00:25:32;13.40;;;4.82;;
75667;SDS011;64266;48.798;44.756;2023-06-05T00:30:35;4.80;;;2.40;;
75667;SDS011;64266;48.798;44.756;2023-06-05T00:35:40;5.07;;;1.73;;
75667;SDS011;64266;48.798;44.756;2023-06-05T00:40:43;4.57;;;1.90;;
75667;SDS011;64266;48.798;44.756;2023-06-05T00:45:46;7.00;;;1.70;;
75667;SDS011;64266;48.798;44.756;2023-06-05T00:50:51;5.68;;;2.65;;
75667;SDS011;64266;48.798;44.756;2023-06-05T00:55:54;7.63;;;2.08;;
75667;SDS011;64266;48.798;44.756;2023-06-05T01:00:57;4.47;;;2.35;;
75667;SDS011;64266;48.798;44.756;2023-06-05T01:06:01;3.60;;;2.00;;
75667;SDS011;64266;48.798;44.756;2023-06-05T01:11:09;4.13;;;1.65;;
75667;SDS011;64266;48.798;44.756;2023-06-05T01:16:15;8.13;;;4.05;;
75667;SDS011;64266;48.798;44.756;2023-06-05T01:21:19;13.73;;;5.70;;
75667;SDS011;64266;48.798;44.756;2023-06-05T01:26:30;11.43;;;5.75;;
75667;SDS011;64266;48.798;44.756;2023-06-05T01:31:40;10.52;;;5.25;;
75667;SDS011;64266;48.798;44.756;2023-06-05T01:36:47;10.27;;;5.78;;
75667;SDS011;64266;48.798;44.756;2023-06-05T01:41:53;14.93;;;5.72;;
75667;SDS011;64266;48.798;44.756;2023-06-05T01:46:59;13.57;;;5.03;;
75667;SDS011;64266;48.798;44.756;2023-06-05T01:52:03;15.63;;;4.35;;
75667;SDS011;64266;48.798;44.756;2023-06-05T01:57:06;8.40;;;3.60;;
75667;SDS011;64266;48.798;44.756;2023-06-05T02:02:09;8.95;;;4.55;;
75667;SDS011;64266;48.798;44.756;2023-06-05T02:07:16;12.38;;;6.22;;
75667;SDS011;64266;48.798;44.756;2023-06-05T02:12:18;7.68;;;3.50;;
75667;SDS011;64266;48.798;44.756;2023-06-05T02:17:23;9.60;;;5.25;;
75667;SDS011;64266;48.798;44.756;2023-06-05T02:27:29;7.50;;;3.65;;
75667;SDS011;64266;48.798;44.756;2023-06-05T02:32:33;11.15;;;5.20;;
75667;SDS011;64266;48.798;44.756;2023-06-05T02:37:36;10.45;;;5.07;;
75667;SDS011;64266;48.798;44.756;2023-06-05T02:42:46;5.97;;;2.92;;
75667;SDS011;64266;48.798;44.756;2023-06-05T02:47:49;5.40;;;2.40;;
75667;SDS011;64266;48.798;44.756;2023-06-05T02:52:53;7.57;;;3.00;;
75667;SDS011;64266;48.798;44.756;2023-06-05T02:58:04;8.05;;;3.83;;
75667;SDS011;64266;48.798;44.756;2023-06-05T03:03:30;12.40;;;4.40;;
75667;SDS011;64266;48.798;44.756;2023-06-05T03:08:35;6.53;;;3.22;;
75667;SDS011;64266;48.798;44.756;2023-06-05T03:13:44;10.73;;;4.97;;
75667;SDS011;64266;48.798;44.756;2023-06-05T03:18:48;9.60;;;5.20;;
75667;SDS011;64266;48.798;44.756;2023-06-05T03:23:53;12.38;;;6.10;;
75667;SDS011;64266;48.798;44.756;2023-06-05T03:28:57;9.23;;;4.85;;
75667;SDS011;64266;48.798;44.756;2023-06-05T03:34:04;11.18;;;3.95;;
75667;SDS011;64266;48.798;44.756;2023-06-05T03:39:09;9.05;;;4.10;;
75667;SDS011;64266;48.798;44.756;2023-06-05T03:44:14;6.95;;;2.60;;
75667;SDS011;64266;48.798;44.756;2023-06-05T03:49:17;8.80;;;3.40;;
75667;SDS011;64266;48.798;44.756;2023-06-05T03:54:23;8.85;;;5.03;;
75667;SDS011;64266;48.798;44.756;2023-06-05T03:59:28;8.57;;;2.55;;
75667;SDS011;64266;48.798;44.756;2023-06-05T04:04:34;13.35;;;3.17;;
75667;SDS011;64266;48.798;44.756;2023-06-05T04:09:38;8.48;;;3.45;;
75667;SDS011;64266;48.798;44.756;2023-06-05T04:14:40;4.90;;;2.20;;
75667;SDS011;64266;48.798;44.756;2023-06-05T04:19:44;4.70;;;2.00;;
75667;SDS011;64266;48.798;44.756;2023-06-05T04:24:47;3.17;;;1.88;;
75667;SDS011;64266;48.798;44.756;2023-06-05T04:29:51;7.03;;;3.92;;
75667;SDS011;64266;48.798;44.756;2023-06-05T04:34:55;5.63;;;2.28;;
75667;SDS011;64266;48.798;44.756;2023-06-05T04:39:59;6.63;;;1.95;;
75667;SDS011;64266;48.798;44.756;2023-06-05T04:45:05;4.35;;;2.10;;
75667;SDS011;64266;48.798;44.756;2023-06-05T04:50:35;9.63;;;3.25;;
75667;SDS011;64266;48.798;44.756;2023-06-05T04:55:43;8.35;;;2.83;;
75667;SDS011;64266;48.798;44.756;2023-06-05T05:00:49;8.32;;;2.92;;
75667;SDS011;64266;48.798;44.756;2023-06-05T05:05:54;5.90;;;2.75;;
75667;SDS011;64266;48.798;44.756;2023-06-05T05:10:58;8.02;;;2.53;;
75667;SDS011;64266;48.798;44.756;2023-06-05T05:16:03;4.88;;;2.00;;
75667;SDS011;64266;48.798;44.756;2023-06-05T05:21:07;11.13;;;3.38;;
75667;SDS011;64266;48.798;44.756;2023-06-05T05:26:11;19.95;;;6.00;;
75667;SDS011;64266;48.798;44.756;2023-06-05T05:31:14;15.70;;;6.22;;
75667;SDS011;64266;48.798;44.756;2023-06-05T05:36:19;31.63;;;5.63;;
75667;SDS011;64266;48.798;44.756;2023-06-05T05:41:23;16.08;;;3.20;;
75667;SDS011;64266;48.798;44.756;2023-06-05T05:46:26;7.80;;;3.28;;
75667;SDS011;64266;48.798;44.756;2023-06-05T05:51:29;6.57;;;2.22;;
75667;SDS011;64266;48.798;44.756;2023-06-05T05:56:32;13.95;;;4.28;;
75667;SDS011;64266;48.798;44.756;2023-06-05T06:01:41;9.43;;;2.20;;
75667;SDS011;64266;48.798;44.756;2023-06-05T06:06:45;6.90;;;2.03;;
75667;SDS011;64266;48.798;44.756;2023-06-05T06:11:55;7.50;;;2.25;;
75667;SDS011;64266;48.798;44.756;2023-06-05T06:16:59;6.32;;;2.17;;
75667;SDS011;64266;48.798;44.756;2023-06-05T06:22:02;4.60;;;2.00;;
75667;SDS011;64266;48.798;44.756;2023-06-05T06:27:06;8.68;;;3.00;;
75667;SDS011;64266;48.798;44.756;2023-06-05T06:32:31;7.95;;;2.20;;
75667;SDS011;64266;48.798;44.756;2023-06-05T06:37:34;6.82;;;2.15;;
75667;SDS011;64266;48.798;44.756;2023-06-05T06:42:37;6.85;;;2.13;;
75667;SDS011;64266;48.798;44.756;2023-06-05T06:48:01;7.13;;;3.08;;
75667;SDS011;64266;48.798;44.756;2023-06-05T06:53:11;12.20;;;3.22;;
75667;SDS011;64266;48.798;44.756;2023-06-05T06:58:16;16.67;;;2.40;;
75667;SDS011;64266;48.798;44.756;2023-06-05T07:03:20;11.00;;;2.20;;
75667;SDS011;64266;48.798;44.756;2023-06-05T07:08:26;18.83;;;2.70;;
75667;SDS011;64266;48.798;44.756;2023-06-05T07:13:30;13.73;;;3.25;;
75667;SDS011;64266;48.798;44.756;2023-06-05T07:18:32;15.73;;;2.70;;
75667;SDS011;64266;48.798;44.756;2023-06-05T07:23:35;7.85;;;2.35;;
75667;SDS011;64266;48.798;44.756;2023-06-05T07:33:42;8.02;;;2.30;;
75667;SDS011;64266;48.798;44.756;2023-06-05T07:38:46;9.07;;;2.30;;
75667;SDS011;64266;48.798;44.756;2023-06-05T07:43:49;5.15;;;1.60;;
75667;SDS011;64266;48.798;44.756;2023-06-05T07:48:52;4.88;;;1.83;;
75667;SDS011;64266;48.798;44.756;2023-06-05T07:53:55;5.20;;;1.85;;
75667;SDS011;64266;48.798;44.756;2023-06-05T07:58:59;7.78;;;2.17;;
75667;SDS011;64266;48.798;44.756;2023-06-05T08:04:06;5.30;;;2.00;;
75667;SDS011;64266;48.798;44.756;2023-06-05T08:09:10;5.78;;;1.80;;
75667;SDS011;64266;48.798;44.756;2023-06-05T08:14:14;4.72;;;2.03;;
75667;SDS011;64266;48.798;44.756;2023-06-05T08:19:18;7.45;;;2.42;;
75667;SDS011;64266;48.798;44.756;2023-06-05T08:24:22;7.90;;;2.20;;
75667;SDS011;64266;48.798;44.756;2023-06-05T08:29:26;9.38;;;2.10;;
75667;SDS011;64266;48.798;44.756;2023-06-05T08:34:30;8.00;;;2.70;;
75667;SDS011;64266;48.798;44.756;2023-06-05T08:39:42;9.35;;;1.80;;
75667;SDS011;64266;48.798;44.756;2023-06-05T08:44:47;8.07;;;1.80;;
75667;SDS011;64266;48.798;44.756;2023-06-05T08:50:07;14.23;;;4.50;;
75667;SDS011;64266;48.798;44.756;2023-06-05T08:55:11;12.10;;;3.17;;
75667;SDS011;64266;48.798;44.756;2023-06-05T09:00:14;5.88;;;2.28;;
75667;SDS011;64266;48.798;44.756;2023-06-05T09:05:19;7.80;;;1.85;;
75667;SDS011;64266;48.798;44.756;2023-06-05T09:10:26;8.73;;;2.10;;
75667;SDS011;64266;48.798;44.756;2023-06-05T09:15:33;9.32;;;2.40;;
75667;SDS011;64266;48.798;44.756;2023-06-05T09:20:38;13.63;;;4.95;;
75667;SDS011;64266;48.798;44.756;2023-06-05T09:25:45;14.95;;;5.97;;
75667;SDS011;64266;48.798;44.756;2023-06-05T09:30:53;30.38;;;7.10;;
75667;SDS011;64266;48.798;44.756;2023-06-05T09:36:05;25.77;;;5.63;;
75667;SDS011;64266;48.798;44.756;2023-06-05T09:41:10;46.72;;;7.88;;
75667;SDS011;64266;48.798;44.756;2023-06-05T09:46:19;44.40;;;9.27;;
75667;SDS011;64266;48.798;44.756;2023-06-05T09:51:22;58.35;;;10.60;;
75667;SDS011;64266;48.798;44.756;2023-06-05T09:56:25;27.23;;;5.40;;
75667;SDS011;64266;48.798;44.756;2023-06-05T10:01:32;20.65;;;4.50;;
75667;SDS011;64266;48.798;44.756;2023-06-05T10:06:40;20.67;;;4.40;;
75667;SDS011;64266;48.798;44.756;2023-06-05T10:11:47;20.88;;;4.45;;
75667;SDS011;64266;48.798;44.756;2023-06-05T10:16:52;15.25;;;3.83;;
75667;SDS011;64266;48.798;44.756;2023-06-05T10:21:56;7.07;;;2.40;;
75667;SDS011;64266;48.798;44.756;2023-06-05T10:49:05;48.80;;;8.10;;
75667;SDS011;64266;48.798;44.756;2023-06-05T10:59:45;33.05;;;6.10;;
75667;SDS011;64266;48.798;44.756;2023-06-05T11:05:08;14.98;;;3.47;;
75667;SDS011;64266;48.798;44.756;2023-06-05T11:10:15;10.32;;;2.50;;
75667;SDS011;64266;48.798;44.756;2023-06-05T11:15:36;6.20;;;1.90;;
75667;SDS011;64266;48.798;44.756;2023-06-05T11:25:47;9.65;;;3.15;;
75667;SDS011;64266;48.798;44.756;2023-06-05T11:30:50;5.43;;;2.45;;
75667;SDS011;64266;48.798;44.756;2023-06-05T11:35:59;4.70;;;2.33;;
75667;SDS011;64266;48.798;44.756;2023-06-05T11:41:05;5.13;;;2.20;;
75667;SDS011;64266;48.798;44.756;2023-06-05T11:46:10;8.00;;;2.67;;
75667;SDS011;64266;48.798;44.756;2023-06-05T11:51:14;9.27;;;2.53;;
75667;SDS011;64266;48.798;44.756;2023-06-05T11:56:18;6.07;;;2.50;;
75667;SDS011;64266;48.798;44.756;2023-06-05T12:01:24;11.88;;;2.72;;
75667;SDS011;64266;48.798;44.756;2023-06-05T12:06:45;14.50;;;2.88;;
75667;SDS011;64266;48.798;44.756;2023-06-05T12:11:50;8.68;;;2.30;;
75667;SDS011;64266;48.798;44.756;2023-06-05T12:17:16;6.40;;;2.30;;
75667;SDS011;64266;48.798;44.756;2023-06-05T12:22:19;12.35;;;3.88;;
75667;SDS011;64266;48.798;44.756;2023-06-05T12:27:29;9.07;;;2.45;;
75667;SDS011;64266;48.798;44.756;2023-06-05T12:32:35;8.38;;;2.53;;
75667;SDS011;64266;48.798;44.756;2023-06-05T12:37:41;9.00;;;2.50;;
75667;SDS011;64266;48.798;44.756;2023-06-05T12:42:48;8.32;;;2.63;;
75667;SDS011;64266;48.798;44.756;2023-06-05T12:47:51;5.40;;;2.30;;
75667;SDS011;64266;48.798;44.756;2023-06-05T12:52:54;7.32;;;2.38;;
75667;SDS011;64266;48.798;44.756;2023-06-05T12:57:56;11.30;;;3.20;;
75667;SDS011;64266;48.798;44.756;2023-06-05T13:02:59;10.32;;;3.05;;
75667;SDS011;64266;48.798;44.756;2023-06-05T13:08:02;7.70;;;2.97;;
75667;SDS011;64266;48.798;44.756;2023-06-05T13:13:05;13.50;;;3.25;;
75667;SDS011;64266;48.798;44.756;2023-06-05T13:18:08;7.68;;;2.95;;
75667;SDS011;64266;48.798;44.756;2023-06-05T13:23:12;10.32;;;3.25;;
75667;SDS011;64266;48.798;44.756;2023-06-05T13:28:15;7.28;;;2.72;;
75667;SDS011;64266;48.798;44.756;2023-06-05T13:33:18;7.55;;;3.00;;
75667;SDS011;64266;48.798;44.756;2023-06-05T13:38:23;9.77;;;2.42;;
75667;SDS011;64266;48.798;44.756;2023-06-05T13:43:30;6.72;;;2.70;;
75667;SDS011;64266;48.798;44.756;2023-06-05T13:48:34;8.45;;;3.00;;
75667;SDS011;64266;48.798;44.756;2023-06-05T13:53:38;6.88;;;3.58;;
75667;SDS011;64266;48.798;44.756;2023-06-05T13:58:41;8.35;;;2.63;;
75667;SDS011;64266;48.798;44.756;2023-06-05T14:03:44;6.78;;;2.65;;
75667;SDS011;64266;48.798;44.756;2023-06-05T14:08:48;6.60;;;2.47;;
75667;SDS011;64266;48.798;44.756;2023-06-05T14:13:52;25.33;;;5.57;;
75667;SDS011;64266;48.798;44.756;2023-06-05T14:18:55;33.97;;;5.60;;
75667;SDS011;64266;48.798;44.756;2023-06-05T14:23:57;17.83;;;4.60;;
75667;SDS011;64266;48.798;44.756;2023-06-05T14:29:01;23.73;;;4.55;;
75667;SDS011;64266;48.798;44.756;2023-06-05T14:34:05;10.20;;;3.70;;
75667;SDS011;64266;48.798;44.756;2023-06-05T14:39:07;18.90;;;4.72;;
75667;SDS011;64266;48.798;44.756;2023-06-05T14:44:10;18.05;;;5.03;;
75667;SDS011;64266;48.798;44.756;2023-06-05T14:49:25;20.85;;;4.53;;
75667;SDS011;64266;48.798;44.756;2023-06-05T14:54:29;9.07;;;3.88;;
75667;SDS011;64266;48.798;44.756;2023-06-05T14:59:33;16.80;;;4.10;;
75667;SDS011;64266;48.798;44.756;2023-06-05T15:04:36;16.13;;;6.90;;
75667;SDS011;64266;48.798;44.756;2023-06-05T15:09:40;13.07;;;5.20;;
75667;SDS011;64266;48.798;44.756;2023-06-05T15:14:43;12.65;;;4.10;;
75667;SDS011;64266;48.798;44.756;2023-06-05T15:19:46;14.82;;;5.25;;
75667;SDS011;64266;48.798;44.756;2023-06-05T15:24:50;15.65;;;6.05;;
75667;SDS011;64266;48.798;44.756;2023-06-05T15:29:52;15.13;;;4.47;;
75667;SDS011;64266;48.798;44.756;2023-06-05T15:34:55;12.27;;;3.78;;
75667;SDS011;64266;48.798;44.756;2023-06-05T15:39:58;15.88;;;5.78;;
75667;SDS011;64266;48.798;44.756;2023-06-05T15:45:11;26.10;;;8.68;;
75667;SDS011;64266;48.798;44.756;2023-06-05T15:50:18;17.08;;;4.57;;
75667;SDS011;64266;48.798;44.756;2023-06-05T15:55:20;9.60;;;3.40;;
75667;SDS011;64266;48.798;44.756;2023-06-05T16:00:27;4.55;;;2.28;;
75667;SDS011;64266;48.798;44.756;2023-06-05T16:05:29;8.52;;;2.67;;
75667;SDS011;64266;48.798;44.756;2023-06-05T16:10:32;6.57;;;2.28;;
75667;SDS011;64266;48.798;44.756;2023-06-05T16:15:34;7.70;;;3.33;;
75667;SDS011;64266;48.798;44.756;2023-06-05T16:20:37;12.23;;;4.68;;
75667;SDS011;64266;48.798;44.756;2023-06-05T16:25:40;6.22;;;3.20;;
75667;SDS011;64266;48.798;44.756;2023-06-05T16:30:43;13.00;;;4.90;;
75667;SDS011;64266;48.798;44.756;2023-06-05T16:35:45;12.25;;;3.88;;
75667;SDS011;64266;48.798;44.756;2023-06-05T16:40:48;9.45;;;4.05;;
75667;SDS011;64266;48.798;44.756;2023-06-05T16:45:50;10.63;;;3.83;;
75667;SDS011;64266;48.798;44.756;2023-06-05T16:50:57;16.13;;;4.43;;
75667;SDS011;64266;48.798;44.756;2023-06-05T16:56:00;13.23;;;4.43;;
75667;SDS011;64266;48.798;44.756;2023-06-05T17:01:03;14.40;;;4.72;;
75667;SDS011;64266;48.798;44.756;2023-06-05T17:06:06;11.93;;;4.45;;
75667;SDS011;64266;48.798;44.756;2023-06-05T17:11:10;12.07;;;4.35;;
75667;SDS011;64266;48.798;44.756;2023-06-05T17:16:13;13.50;;;4.15;;
75667;SDS011;64266;48.798;44.756;2023-06-05T17:21:16;10.00;;;4.28;;
75667;SDS011;64266;48.798;44.756;2023-06-05T17:26:19;14.30;;;4.30;;
75667;SDS011;64266;48.798;44.756;2023-06-05T17:31:23;16.63;;;4.68;;
75667;SDS011;64266;48.798;44.756;2023-06-05T17:36:27;16.70;;;4.40;;
75667;SDS011;64266;48.798;44.756;2023-06-05T17:41:30;12.98;;;4.57;;
75667;SDS011;64266;48.798;44.756;2023-06-05T17:46:33;17.15;;;5.32;;
75667;SDS011;64266;48.798;44.756;2023-06-05T17:51:36;19.73;;;5.30;;
75667;SDS011;64266;48.798;44.756;2023-06-05T17:56:39;20.58;;;5.63;;
75667;SDS011;64266;48.798;44.756;2023-06-05T18:01:42;17.42;;;5.00;;
75667;SDS011;64266;48.798;44.756;2023-06-05T18:06:45;21.38;;;4.88;;
75667;SDS011;64266;48.798;44.756;2023-06-05T18:11:47;22.25;;;6.20;;
75667;SDS011;64266;48.798;44.756;2023-06-05T18:16:50;16.15;;;5.20;;
75667;SDS011;64266;48.798;44.756;2023-06-05T18:21:53;19.15;;;5.72;;
75667;SDS011;64266;48.798;44.756;2023-06-05T18:26:59;17.83;;;5.53;;
75667;SDS011;64266;48.798;44.756;2023-06-05T18:32:02;17.13;;;5.95;;
75667;SDS011;64266;48.798;44.756;2023-06-05T18:37:05;11.60;;;5.45;;
75667;SDS011;64266;48.798;44.756;2023-06-05T18:42:08;17.35;;;5.63;;
75667;SDS011;64266;48.798;44.756;2023-06-05T18:47:12;19.73;;;7.00;;
75667;SDS011;64266;48.798;44.756;2023-06-05T18:52:17;23.10;;;8.05;;
75667;SDS011;64266;48.798;44.756;2023-06-05T18:57:19;18.70;;;8.07;;
75667;SDS011;64266;48.798;44.756;2023-06-05T19:02:23;27.92;;;9.75;;
75667;SDS011;64266;48.798;44.756;2023-06-05T19:07:26;19.02;;;9.23;;
75667;SDS011;64266;48.798;44.756;2023-06-05T19:12:28;19.92;;;10.32;;
75667;SDS011;64266;48.798;44.756;2023-06-05T19:17:30;28.05;;;11.93;;
75667;SDS011;64266;48.798;44.756;2023-06-05T19:22:33;25.52;;;12.85;;
75667;SDS011;64266;48.798;44.756;2023-06-05T19:27:38;31.05;;;13.60;;
75667;SDS011;64266;48.798;44.756;2023-06-05T19:32:40;23.50;;;13.18;;
75667;SDS011;64266;48.798;44.756;2023-06-05T19:37:45;27.58;;;13.73;;
75667;SDS011;64266;48.798;44.756;2023-06-05T19:42:48;26.42;;;14.85;;
75667;SDS011;64266;48.798;44.756;2023-06-05T19:47:50;26.70;;;15.45;;
75667;SDS011;64266;48.798;44.756;2023-06-05T19:52:53;33.95;;;19.10;;
75667;SDS011;64266;48.798;44.756;2023-06-05T19:57:56;27.55;;;16.08;;
75667;SDS011;64266;48.798;44.756;2023-06-05T20:02:58;31.48;;;15.23;;
75667;SDS011;64266;48.798;44.756;2023-06-05T20:08:01;31.20;;;15.10;;
75667;SDS011;64266;48.798;44.756;2023-06-05T20:13:03;26.33;;;12.00;;
75667;SDS011;64266;48.798;44.756;2023-06-05T20:18:06;26.60;;;13.52;;
75667;SDS011;64266;48.798;44.756;2023-06-05T20:23:08;28.30;;;14.35;;
75667;SDS011;64266;48.798;44.756;2023-06-05T20:28:10;19.27;;;9.55;;
75667;SDS011;64266;48.798;44.756;2023-06-05T20:33:14;18.40;;;6.50;;
75667;SDS011;64266;48.798;44.756;2023-06-05T20:38:16;10.25;;;3.80;;
75667;SDS011;64266;48.798;44.756;2023-06-05T20:43:23;5.28;;;2.97;;
75667;SDS011;64266;48.798;44.756;2023-06-05T20:48:27;9.73;;;3.70;;
75667;SDS011;64266;48.798;44.756;2023-06-05T20:53:32;9.07;;;2.40;;
75667;SDS011;64266;48.798;44.756;2023-06-05T20:58:34;5.45;;;1.90;;
75667;SDS011;64266;48.798;44.756;2023-06-05T21:03:37;7.07;;;1.98;;
75667;SDS011;64266;48.798;44.756;2023-06-05T21:08:39;3.58;;;1.60;;
75667;SDS011;64266;48.798;44.756;2023-06-05T21:13:42;3.92;;;1.80;;
75667;SDS011;64266;48.798;44.756;2023-06-05T21:18:46;4.05;;;1.52;;
75667;SDS011;64266;48.798;44.756;2023-06-05T21:23:49;4.82;;;1.50;;
75667;SDS011;64266;48.798;44.756;2023-06-05T21:28:52;5.32;;;1.60;;
75667;SDS011;64266;48.798;44.756;2023-06-05T21:33:56;6.88;;;1.98;;
75667;SDS011;64266;48.798;44.756;2023-06-05T21:38:58;5.20;;;1.70;;
75667;SDS011;64266;48.798;44.756;2023-06-05T21:44:00;5.03;;;1.48;;
75667;SDS011;64266;48.798;44.756;2023-06-05T21:49:03;6.35;;;1.98;;
75667;SDS011;64266;48.798;44.756;2023-06-05T21:54:05;7.13;;;1.88;;
75667;SDS011;64266;48.798;44.756;2023-06-05T21:59:09;4.97;;;2.08;;
75667;SDS011;64266;48.798;44.756;2023-06-05T22:04:11;7.05;;;2.05;;
75667;SDS011;64266;48.798;44.756;2023-06-05T22:09:15;5.65;;;2.10;;
75667;SDS011;64266;48.798;44.756;2023-06-05T22:14:19;6.50;;;2.40;;
75667;SDS011;64266;48.798;44.756;2023-06-05T22:19:27;3.60;;;1.80;;
75667;SDS011;64266;48.798;44.756;2023-06-05T22:24:32;4.07;;;1.85;;
75667;SDS011;64266;48.798;44.756;2023-06-05T22:29:35;6.82;;;2.05;;
75667;SDS011;64266;48.798;44.756;2023-06-05T22:34:37;3.80;;;1.73;;
75667;SDS011;64266;48.798;44.756;2023-06-05T22:39:41;4.07;;;1.90;;
75667;SDS011;64266;48.798;44.756;2023-06-05T22:44:44;3.47;;;1.77;;
75667;SDS011;64266;48.798;44.756;2023-06-05T22:49:47;3.67;;;1.40;;
75667;SDS011;64266;48.798;44.756;2023-06-05T22:54:54;4.53;;;1.42;;
75667;SDS011;64266;48.798;44.756;2023-06-05T22:59:57;4.15;;;1.30;;
75667;SDS011;64266;48.798;44.756;2023-06-05T23:05:01;4.88;;;1.48;;
75667;SDS011;64266;48.798;44.756;2023-06-05T23:10:04;3.15;;;1.40;;
75667;SDS011;64266;48.798;44.756;2023-06-05T23:15:08;3.10;;;1.80;;
75667;SDS011;64266;48.798;44.756;2023-06-05T23:20:15;3.33;;;1.50;;
75667;SDS011;64266;48.798;44.756;2023-06-05T23:25:19;6.25;;;1.60;;
75667;SDS011;64266;48.798;44.756;2023-06-05T23:30:21;5.15;;;1.73;;
75667;SDS011;64266;48.798;44.756;2023-06-05T23:35:24;5.68;;;1.70;;
75667;SDS011;64266;48.798;44.756;2023-06-05T23:40:27;6.82;;;1.70;;
75667;SDS011;64266;48.798;44.756;2023-06-05T23:45:30;4.15;;;1.50;;
75667;SDS011;64266;48.798;44.756;2023-06-05T23:50:34;4.57;;;1.48;;
75667;SDS011;64266;48.798;44.756;2023-06-05T23:55:37;6.03;;;1.88;;
